sensor_id;sensor_type;location;lat;lon;timestamp;P1;durP1;ratioP1;P2;durP2;ratioP2
24891;SDS011;12954;50.688;10.908;2022-12-07T00:01:35;2.42;;;1.50;;
24891;SDS011;12954;50.688;10.908;2022-12-07T00:04:06;2.20;;;1.63;;
24891;SDS011;12954;50.688;10.908;2022-12-07T00:06:38;3.22;;;1.75;;
24891;SDS011;12954;50.688;10.908;2022-12-07T00:09:09;2.40;;;1.63;;
24891;SDS011;12954;50.688;10.908;2022-12-07T00:11:39;2.35;;;1.50;;
24891;SDS011;12954;50.688;10.908;2022-12-07T00:14:10;2.55;;;1.80;;
24891;SDS011;12954;50.688;10.908;2022-12-07T00:16:41;2.20;;;1.60;;
24891;SDS011;12954;50.688;10.908;2022-12-07T00:19:11;3.10;;;1.60;;
24891;SDS011;12954;50.688;10.908;2022-12-07T00:21:41;3.85;;;1.88;;
24891;SDS011;12954;50.688;10.908;2022-12-07T00:24:10;3.40;;;1.80;;
24891;SDS011;12954;50.688;10.908;2022-12-07T00:26:40;2.38;;;1.92;;
24891;SDS011;12954;50.688;10.908;2022-12-07T00:29:11;1.95;;;1.27;;
24891;SDS011;12954;50.688;10.908;2022-12-07T00:31:44;2.87;;;1.83;;
24891;SDS011;12954;50.688;10.908;2022-12-07T00:34:15;3.17;;;2.00;;
24891;SDS011;12954;50.688;10.908;2022-12-07T00:36:46;2.60;;;1.70;;
24891;SDS011;12954;50.688;10.908;2022-12-07T00:39:14;2.92;;;1.83;;
24891;SDS011;12954;50.688;10.908;2022-12-07T00:41:42;3.78;;;1.73;;
24891;SDS011;12954;50.688;10.908;2022-12-07T00:44:11;3.13;;;2.00;;
24891;SDS011;12954;50.688;10.908;2022-12-07T00:46:39;2.35;;;1.63;;
24891;SDS011;12954;50.688;10.908;2022-12-07T00:49:10;3.88;;;2.00;;
24891;SDS011;12954;50.688;10.908;2022-12-07T00:51:38;2.97;;;1.85;;
24891;SDS011;12954;50.688;10.908;2022-12-07T00:54:07;2.70;;;2.10;;
24891;SDS011;12954;50.688;10.908;2022-12-07T00:56:35;4.15;;;2.38;;
24891;SDS011;12954;50.688;10.908;2022-12-07T00:59:03;4.38;;;2.20;;
24891;SDS011;12954;50.688;10.908;2022-12-07T01:01:35;2.58;;;1.85;;
24891;SDS011;12954;50.688;10.908;2022-12-07T01:04:04;2.60;;;2.20;;
24891;SDS011;12954;50.688;10.908;2022-12-07T01:06:35;3.20;;;2.35;;
24891;SDS011;12954;50.688;10.908;2022-12-07T01:09:03;3.22;;;2.30;;
24891;SDS011;12954;50.688;10.908;2022-12-07T01:11:32;3.10;;;2.15;;
24891;SDS011;12954;50.688;10.908;2022-12-07T01:14:01;3.03;;;2.10;;
24891;SDS011;12954;50.688;10.908;2022-12-07T01:16:31;3.33;;;2.50;;
24891;SDS011;12954;50.688;10.908;2022-12-07T01:19:00;3.65;;;2.38;;
24891;SDS011;12954;50.688;10.908;2022-12-07T01:21:32;3.03;;;2.33;;
24891;SDS011;12954;50.688;10.908;2022-12-07T01:24:04;3.80;;;2.42;;
24891;SDS011;12954;50.688;10.908;2022-12-07T01:26:34;3.35;;;2.40;;
24891;SDS011;12954;50.688;10.908;2022-12-07T01:29:04;3.10;;;2.53;;
24891;SDS011;12954;50.688;10.908;2022-12-07T01:31:32;3.42;;;2.90;;
24891;SDS011;12954;50.688;10.908;2022-12-07T01:34:01;4.05;;;3.00;;
24891;SDS011;12954;50.688;10.908;2022-12-07T01:36:30;4.18;;;3.10;;
24891;SDS011;12954;50.688;10.908;2022-12-07T01:39:02;4.30;;;3.17;;
24891;SDS011;12954;50.688;10.908;2022-12-07T01:41:33;3.63;;;3.10;;
24891;SDS011;12954;50.688;10.908;2022-12-07T01:44:14;5.85;;;3.22;;
24891;SDS011;12954;50.688;10.908;2022-12-07T01:46:45;4.88;;;3.10;;
24891;SDS011;12954;50.688;10.908;2022-12-07T01:49:16;4.80;;;3.20;;
24891;SDS011;12954;50.688;10.908;2022-12-07T01:51:49;3.72;;;2.97;;
24891;SDS011;12954;50.688;10.908;2022-12-07T01:54:21;4.03;;;3.22;;
24891;SDS011;12954;50.688;10.908;2022-12-07T01:56:50;3.83;;;2.67;;
24891;SDS011;12954;50.688;10.908;2022-12-07T01:59:21;3.03;;;2.38;;
24891;SDS011;12954;50.688;10.908;2022-12-07T02:01:53;3.20;;;2.40;;
24891;SDS011;12954;50.688;10.908;2022-12-07T02:04:23;4.45;;;2.60;;
24891;SDS011;12954;50.688;10.908;2022-12-07T02:06:51;3.20;;;2.42;;
24891;SDS011;12954;50.688;10.908;2022-12-07T02:09:22;2.45;;;2.25;;
24891;SDS011;12954;50.688;10.908;2022-12-07T02:11:51;3.63;;;2.45;;
24891;SDS011;12954;50.688;10.908;2022-12-07T02:14:21;3.10;;;2.40;;
24891;SDS011;12954;50.688;10.908;2022-12-07T02:16:53;3.70;;;2.28;;
24891;SDS011;12954;50.688;10.908;2022-12-07T02:19:39;2.78;;;2.13;;
24891;SDS011;12954;50.688;10.908;2022-12-07T02:22:34;3.38;;;2.45;;
24891;SDS011;12954;50.688;10.908;2022-12-07T02:25:27;2.67;;;2.13;;
24891;SDS011;12954;50.688;10.908;2022-12-07T02:28:10;4.28;;;2.05;;
24891;SDS011;12954;50.688;10.908;2022-12-07T02:30:48;4.15;;;2.55;;
24891;SDS011;12954;50.688;10.908;2022-12-07T02:33:22;3.33;;;2.42;;
24891;SDS011;12954;50.688;10.908;2022-12-07T02:35:55;3.35;;;2.70;;
24891;SDS011;12954;50.688;10.908;2022-12-07T02:38:31;3.78;;;2.85;;
24891;SDS011;12954;50.688;10.908;2022-12-07T02:41:07;3.33;;;2.67;;
24891;SDS011;12954;50.688;10.908;2022-12-07T02:43:40;6.03;;;2.72;;
24891;SDS011;12954;50.688;10.908;2022-12-07T02:46:13;3.00;;;2.50;;
24891;SDS011;12954;50.688;10.908;2022-12-07T02:51:13;3.50;;;2.50;;
24891;SDS011;12954;50.688;10.908;2022-12-07T02:53:42;3.30;;;2.63;;
24891;SDS011;12954;50.688;10.908;2022-12-07T02:56:13;3.70;;;2.80;;
24891;SDS011;12954;50.688;10.908;2022-12-07T02:58:51;3.10;;;2.42;;
24891;SDS011;12954;50.688;10.908;2022-12-07T03:01:30;3.20;;;2.40;;
24891;SDS011;12954;50.688;10.908;2022-12-07T03:04:08;4.00;;;2.60;;
24891;SDS011;12954;50.688;10.908;2022-12-07T03:06:49;3.63;;;2.60;;
24891;SDS011;12954;50.688;10.908;2022-12-07T03:09:22;2.28;;;2.00;;
24891;SDS011;12954;50.688;10.908;2022-12-07T03:12:00;3.03;;;2.20;;
24891;SDS011;12954;50.688;10.908;2022-12-07T03:14:40;2.83;;;2.15;;
24891;SDS011;12954;50.688;10.908;2022-12-07T03:17:17;2.45;;;2.00;;
24891;SDS011;12954;50.688;10.908;2022-12-07T03:19:48;2.28;;;1.98;;
24891;SDS011;12954;50.688;10.908;2022-12-07T03:22:19;2.65;;;2.17;;
24891;SDS011;12954;50.688;10.908;2022-12-07T03:24:50;2.47;;;1.90;;
24891;SDS011;12954;50.688;10.908;2022-12-07T03:27:22;1.67;;;1.58;;
24891;SDS011;12954;50.688;10.908;2022-12-07T03:29:54;1.98;;;1.42;;
24891;SDS011;12954;50.688;10.908;2022-12-07T03:32:29;2.10;;;1.60;;
24891;SDS011;12954;50.688;10.908;2022-12-07T03:35:05;2.22;;;1.80;;
24891;SDS011;12954;50.688;10.908;2022-12-07T03:37:43;2.13;;;1.60;;
24891;SDS011;12954;50.688;10.908;2022-12-07T03:40:15;1.50;;;1.40;;
24891;SDS011;12954;50.688;10.908;2022-12-07T03:42:49;3.13;;;1.30;;
24891;SDS011;12954;50.688;10.908;2022-12-07T03:45:19;1.30;;;1.15;;
24891;SDS011;12954;50.688;10.908;2022-12-07T03:47:54;1.10;;;1.00;;
24891;SDS011;12954;50.688;10.908;2022-12-07T03:50:32;1.00;;;0.82;;
24891;SDS011;12954;50.688;10.908;2022-12-07T03:53:11;1.33;;;0.80;;
24891;SDS011;12954;50.688;10.908;2022-12-07T03:55:44;0.70;;;0.60;;
24891;SDS011;12954;50.688;10.908;2022-12-07T03:58:16;1.13;;;0.90;;
24891;SDS011;12954;50.688;10.908;2022-12-07T04:00:48;1.00;;;0.90;;
24891;SDS011;12954;50.688;10.908;2022-12-07T04:03:18;0.65;;;0.65;;
24891;SDS011;12954;50.688;10.908;2022-12-07T04:05:47;0.70;;;0.70;;
24891;SDS011;12954;50.688;10.908;2022-12-07T04:08:16;0.95;;;0.88;;
24891;SDS011;12954;50.688;10.908;2022-12-07T04:10:44;1.15;;;0.70;;
24891;SDS011;12954;50.688;10.908;2022-12-07T04:13:13;1.20;;;0.80;;
24891;SDS011;12954;50.688;10.908;2022-12-07T04:15:41;0.50;;;0.50;;
24891;SDS011;12954;50.688;10.908;2022-12-07T04:18:10;1.02;;;0.90;;
24891;SDS011;12954;50.688;10.908;2022-12-07T04:20:40;0.63;;;0.60;;
24891;SDS011;12954;50.688;10.908;2022-12-07T04:23:09;0.60;;;0.60;;
24891;SDS011;12954;50.688;10.908;2022-12-07T04:25:38;0.75;;;0.75;;
24891;SDS011;12954;50.688;10.908;2022-12-07T04:28:06;1.10;;;0.80;;
24891;SDS011;12954;50.688;10.908;2022-12-07T04:30:35;1.30;;;0.80;;
24891;SDS011;12954;50.688;10.908;2022-12-07T04:33:03;1.73;;;1.27;;
24891;SDS011;12954;50.688;10.908;2022-12-07T04:35:32;1.38;;;1.15;;
24891;SDS011;12954;50.688;10.908;2022-12-07T04:38:02;1.77;;;1.10;;
24891;SDS011;12954;50.688;10.908;2022-12-07T04:40:30;1.55;;;0.90;;
24891;SDS011;12954;50.688;10.908;2022-12-07T04:42:59;1.40;;;1.25;;
24891;SDS011;12954;50.688;10.908;2022-12-07T04:45:27;1.73;;;1.25;;
24891;SDS011;12954;50.688;10.908;2022-12-07T04:47:55;1.50;;;1.00;;
24891;SDS011;12954;50.688;10.908;2022-12-07T04:50:24;1.55;;;1.15;;
24891;SDS011;12954;50.688;10.908;2022-12-07T04:52:52;0.90;;;0.80;;
24891;SDS011;12954;50.688;10.908;2022-12-07T04:55:22;1.70;;;1.20;;
24891;SDS011;12954;50.688;10.908;2022-12-07T04:57:50;1.52;;;0.88;;
24891;SDS011;12954;50.688;10.908;2022-12-07T05:00:19;0.68;;;0.63;;
24891;SDS011;12954;50.688;10.908;2022-12-07T05:02:47;1.00;;;0.90;;
24891;SDS011;12954;50.688;10.908;2022-12-07T05:05:16;1.00;;;0.80;;
24891;SDS011;12954;50.688;10.908;2022-12-07T05:07:44;0.90;;;0.80;;
24891;SDS011;12954;50.688;10.908;2022-12-07T05:10:13;1.10;;;1.00;;
24891;SDS011;12954;50.688;10.908;2022-12-07T05:12:43;0.85;;;0.70;;
24891;SDS011;12954;50.688;10.908;2022-12-07T05:15:12;0.70;;;0.70;;
24891;SDS011;12954;50.688;10.908;2022-12-07T05:17:40;0.65;;;0.65;;
24891;SDS011;12954;50.688;10.908;2022-12-07T05:20:09;0.95;;;0.70;;
24891;SDS011;12954;50.688;10.908;2022-12-07T05:22:38;0.60;;;0.60;;
24891;SDS011;12954;50.688;10.908;2022-12-07T05:25:07;0.80;;;0.73;;
24891;SDS011;12954;50.688;10.908;2022-12-07T05:27:36;0.60;;;0.50;;
24891;SDS011;12954;50.688;10.908;2022-12-07T05:30:07;1.10;;;0.30;;
24891;SDS011;12954;50.688;10.908;2022-12-07T05:32:36;0.50;;;0.50;;
24891;SDS011;12954;50.688;10.908;2022-12-07T05:35:04;0.68;;;0.60;;
24891;SDS011;12954;50.688;10.908;2022-12-07T05:37:33;0.63;;;0.55;;
24891;SDS011;12954;50.688;10.908;2022-12-07T05:40:02;0.82;;;0.60;;
24891;SDS011;12954;50.688;10.908;2022-12-07T05:42:31;0.63;;;0.60;;
24891;SDS011;12954;50.688;10.908;2022-12-07T05:45:00;0.82;;;0.60;;
24891;SDS011;12954;50.688;10.908;2022-12-07T05:47:30;0.80;;;0.80;;
24891;SDS011;12954;50.688;10.908;2022-12-07T05:49:58;1.98;;;1.20;;
24891;SDS011;12954;50.688;10.908;2022-12-07T05:52:27;1.20;;;1.00;;
24891;SDS011;12954;50.688;10.908;2022-12-07T05:54:56;1.67;;;1.08;;
24891;SDS011;12954;50.688;10.908;2022-12-07T05:57:24;1.55;;;1.08;;
24891;SDS011;12954;50.688;10.908;2022-12-07T05:59:53;1.55;;;1.20;;
24891;SDS011;12954;50.688;10.908;2022-12-07T06:02:20;3.70;;;1.95;;
24891;SDS011;12954;50.688;10.908;2022-12-07T06:04:50;2.33;;;1.73;;
24891;SDS011;12954;50.688;10.908;2022-12-07T06:07:19;2.35;;;1.88;;
24891;SDS011;12954;50.688;10.908;2022-12-07T06:09:47;3.67;;;2.38;;
24891;SDS011;12954;50.688;10.908;2022-12-07T06:12:16;2.55;;;1.70;;
24891;SDS011;12954;50.688;10.908;2022-12-07T06:15:01;2.47;;;2.17;;
24891;SDS011;12954;50.688;10.908;2022-12-07T06:17:30;1.60;;;1.50;;
24891;SDS011;12954;50.688;10.908;2022-12-07T06:20:00;2.03;;;1.70;;
24891;SDS011;12954;50.688;10.908;2022-12-07T06:22:30;2.20;;;1.60;;
24891;SDS011;12954;50.688;10.908;2022-12-07T06:24:58;1.42;;;1.25;;
24891;SDS011;12954;50.688;10.908;2022-12-07T06:27:34;1.60;;;1.50;;
24891;SDS011;12954;50.688;10.908;2022-12-07T06:30:02;1.60;;;1.40;;
24891;SDS011;12954;50.688;10.908;2022-12-07T06:32:33;1.33;;;1.23;;
24891;SDS011;12954;50.688;10.908;2022-12-07T06:35:04;1.05;;;0.95;;
24891;SDS011;12954;50.688;10.908;2022-12-07T06:37:33;1.30;;;1.10;;
24891;SDS011;12954;50.688;10.908;2022-12-07T06:40:02;1.58;;;1.48;;
24891;SDS011;12954;50.688;10.908;2022-12-07T06:42:31;2.00;;;1.80;;
24891;SDS011;12954;50.688;10.908;2022-12-07T06:44:59;2.33;;;1.90;;
24891;SDS011;12954;50.688;10.908;2022-12-07T06:47:28;2.92;;;2.15;;
24891;SDS011;12954;50.688;10.908;2022-12-07T06:50:09;2.97;;;2.17;;
24891;SDS011;12954;50.688;10.908;2022-12-07T06:52:37;3.20;;;2.55;;
24891;SDS011;12954;50.688;10.908;2022-12-07T06:55:06;5.00;;;2.90;;
24891;SDS011;12954;50.688;10.908;2022-12-07T06:57:35;4.50;;;3.10;;
24891;SDS011;12954;50.688;10.908;2022-12-07T07:00:03;2.63;;;2.35;;
24891;SDS011;12954;50.688;10.908;2022-12-07T07:02:33;2.95;;;2.50;;
24891;SDS011;12954;50.688;10.908;2022-12-07T07:05:01;2.63;;;2.25;;
24891;SDS011;12954;50.688;10.908;2022-12-07T07:07:31;2.95;;;2.63;;
24891;SDS011;12954;50.688;10.908;2022-12-07T07:10:20;3.33;;;2.40;;
24891;SDS011;12954;50.688;10.908;2022-12-07T07:12:48;3.35;;;2.40;;
24891;SDS011;12954;50.688;10.908;2022-12-07T07:15:22;2.92;;;2.38;;
24891;SDS011;12954;50.688;10.908;2022-12-07T07:17:51;2.30;;;1.88;;
24891;SDS011;12954;50.688;10.908;2022-12-07T07:20:19;3.03;;;2.00;;
24891;SDS011;12954;50.688;10.908;2022-12-07T07:22:49;2.90;;;2.10;;
24891;SDS011;12954;50.688;10.908;2022-12-07T07:25:17;1.92;;;1.70;;
24891;SDS011;12954;50.688;10.908;2022-12-07T07:27:46;2.83;;;2.20;;
24891;SDS011;12954;50.688;10.908;2022-12-07T07:30:14;2.72;;;1.70;;
24891;SDS011;12954;50.688;10.908;2022-12-07T07:32:43;2.78;;;1.63;;
24891;SDS011;12954;50.688;10.908;2022-12-07T07:35:12;1.92;;;1.73;;
24891;SDS011;12954;50.688;10.908;2022-12-07T07:37:41;3.55;;;2.53;;
24891;SDS011;12954;50.688;10.908;2022-12-07T07:40:11;4.70;;;3.50;;
24891;SDS011;12954;50.688;10.908;2022-12-07T07:42:39;9.23;;;7.13;;
24891;SDS011;12954;50.688;10.908;2022-12-07T07:45:08;2.85;;;1.95;;
24891;SDS011;12954;50.688;10.908;2022-12-07T07:47:37;2.88;;;2.13;;
24891;SDS011;12954;50.688;10.908;2022-12-07T07:50:06;3.05;;;2.67;;
24891;SDS011;12954;50.688;10.908;2022-12-07T07:52:35;5.93;;;2.90;;
24891;SDS011;12954;50.688;10.908;2022-12-07T07:55:04;3.60;;;2.47;;
24891;SDS011;12954;50.688;10.908;2022-12-07T07:57:36;3.10;;;1.85;;
24891;SDS011;12954;50.688;10.908;2022-12-07T08:00:06;4.25;;;2.40;;
24891;SDS011;12954;50.688;10.908;2022-12-07T08:02:36;2.22;;;1.88;;
24891;SDS011;12954;50.688;10.908;2022-12-07T08:05:05;2.20;;;1.80;;
24891;SDS011;12954;50.688;10.908;2022-12-07T08:07:34;4.63;;;2.63;;
24891;SDS011;12954;50.688;10.908;2022-12-07T08:10:03;3.13;;;2.10;;
24891;SDS011;12954;50.688;10.908;2022-12-07T08:12:37;3.20;;;2.45;;
24891;SDS011;12954;50.688;10.908;2022-12-07T08:15:26;2.60;;;2.15;;
24891;SDS011;12954;50.688;10.908;2022-12-07T08:17:56;5.55;;;3.05;;
24891;SDS011;12954;50.688;10.908;2022-12-07T08:20:25;5.15;;;2.58;;
24891;SDS011;12954;50.688;10.908;2022-12-07T08:22:53;4.15;;;2.40;;
24891;SDS011;12954;50.688;10.908;2022-12-07T08:25:22;4.90;;;3.63;;
24891;SDS011;12954;50.688;10.908;2022-12-07T08:27:52;7.93;;;4.28;;
24891;SDS011;12954;50.688;10.908;2022-12-07T08:30:22;6.65;;;4.20;;
24891;SDS011;12954;50.688;10.908;2022-12-07T08:32:51;14.50;;;9.52;;
24891;SDS011;12954;50.688;10.908;2022-12-07T08:35:19;9.40;;;5.90;;
24891;SDS011;12954;50.688;10.908;2022-12-07T08:37:48;14.60;;;8.80;;
24891;SDS011;12954;50.688;10.908;2022-12-07T08:40:16;3.50;;;2.25;;
24891;SDS011;12954;50.688;10.908;2022-12-07T08:42:48;5.13;;;3.15;;
24891;SDS011;12954;50.688;10.908;2022-12-07T08:45:18;5.93;;;3.22;;
24891;SDS011;12954;50.688;10.908;2022-12-07T08:47:54;3.47;;;2.60;;
24891;SDS011;12954;50.688;10.908;2022-12-07T08:50:25;3.92;;;2.80;;
24891;SDS011;12954;50.688;10.908;2022-12-07T08:52:54;4.07;;;2.70;;
24891;SDS011;12954;50.688;10.908;2022-12-07T08:55:25;4.05;;;1.85;;
24891;SDS011;12954;50.688;10.908;2022-12-07T08:57:55;3.03;;;1.90;;
24891;SDS011;12954;50.688;10.908;2022-12-07T09:00:26;6.50;;;1.95;;
24891;SDS011;12954;50.688;10.908;2022-12-07T09:02:55;3.33;;;2.08;;
24891;SDS011;12954;50.688;10.908;2022-12-07T09:05:23;3.78;;;2.10;;
24891;SDS011;12954;50.688;10.908;2022-12-07T09:07:54;2.58;;;2.10;;
24891;SDS011;12954;50.688;10.908;2022-12-07T09:10:25;4.18;;;2.50;;
24891;SDS011;12954;50.688;10.908;2022-12-07T09:12:54;3.95;;;2.40;;
24891;SDS011;12954;50.688;10.908;2022-12-07T09:15:22;3.78;;;1.92;;
24891;SDS011;12954;50.688;10.908;2022-12-07T09:17:52;5.88;;;2.47;;
24891;SDS011;12954;50.688;10.908;2022-12-07T09:20:21;4.18;;;2.13;;
24891;SDS011;12954;50.688;10.908;2022-12-07T09:22:53;5.57;;;3.55;;
24891;SDS011;12954;50.688;10.908;2022-12-07T09:25:22;4.57;;;2.30;;
24891;SDS011;12954;50.688;10.908;2022-12-07T09:27:54;4.00;;;2.45;;
24891;SDS011;12954;50.688;10.908;2022-12-07T09:30:24;5.07;;;2.50;;
24891;SDS011;12954;50.688;10.908;2022-12-07T09:32:54;3.22;;;2.05;;
24891;SDS011;12954;50.688;10.908;2022-12-07T09:35:23;4.70;;;2.58;;
24891;SDS011;12954;50.688;10.908;2022-12-07T09:37:52;2.85;;;1.85;;
24891;SDS011;12954;50.688;10.908;2022-12-07T09:40:22;6.30;;;2.00;;
24891;SDS011;12954;50.688;10.908;2022-12-07T09:42:52;4.72;;;1.88;;
24891;SDS011;12954;50.688;10.908;2022-12-07T09:45:23;2.15;;;1.85;;
24891;SDS011;12954;50.688;10.908;2022-12-07T09:48:03;3.22;;;1.95;;
24891;SDS011;12954;50.688;10.908;2022-12-07T09:50:32;2.53;;;1.48;;
24891;SDS011;12954;50.688;10.908;2022-12-07T09:53:04;3.65;;;1.83;;
24891;SDS011;12954;50.688;10.908;2022-12-07T09:55:36;3.88;;;1.60;;
24891;SDS011;12954;50.688;10.908;2022-12-07T09:58:08;3.58;;;1.85;;
24891;SDS011;12954;50.688;10.908;2022-12-07T10:00:42;2.97;;;1.60;;
24891;SDS011;12954;50.688;10.908;2022-12-07T10:03:13;3.85;;;1.65;;
24891;SDS011;12954;50.688;10.908;2022-12-07T10:05:42;4.28;;;2.00;;
24891;SDS011;12954;50.688;10.908;2022-12-07T10:08:13;4.15;;;2.50;;
24891;SDS011;12954;50.688;10.908;2022-12-07T10:10:44;3.67;;;1.60;;
24891;SDS011;12954;50.688;10.908;2022-12-07T10:13:14;3.03;;;1.83;;
24891;SDS011;12954;50.688;10.908;2022-12-07T10:15:47;3.42;;;1.98;;
24891;SDS011;12954;50.688;10.908;2022-12-07T10:18:21;7.90;;;4.30;;
24891;SDS011;12954;50.688;10.908;2022-12-07T10:21:02;3.70;;;1.75;;
24891;SDS011;12954;50.688;10.908;2022-12-07T10:23:38;3.30;;;1.60;;
24891;SDS011;12954;50.688;10.908;2022-12-07T10:26:21;3.20;;;1.58;;
24891;SDS011;12954;50.688;10.908;2022-12-07T10:28:56;2.33;;;1.25;;
24891;SDS011;12954;50.688;10.908;2022-12-07T10:31:27;4.22;;;1.20;;
24891;SDS011;12954;50.688;10.908;2022-12-07T10:33:58;2.85;;;1.63;;
24891;SDS011;12954;50.688;10.908;2022-12-07T10:36:33;2.55;;;1.30;;
24891;SDS011;12954;50.688;10.908;2022-12-07T10:39:04;2.85;;;1.80;;
24891;SDS011;12954;50.688;10.908;2022-12-07T10:41:52;1.98;;;1.42;;
24891;SDS011;12954;50.688;10.908;2022-12-07T10:44:23;4.35;;;2.20;;
24891;SDS011;12954;50.688;10.908;2022-12-07T10:53:10;1.77;;;1.25;;
24891;SDS011;12954;50.688;10.908;2022-12-07T10:56:10;6.72;;;2.95;;
24891;SDS011;12954;50.688;10.908;2022-12-07T10:59:00;3.50;;;1.38;;
24891;SDS011;12954;50.688;10.908;2022-12-07T11:01:41;2.85;;;1.35;;
24891;SDS011;12954;50.688;10.908;2022-12-07T11:04:25;2.25;;;1.40;;
24891;SDS011;12954;50.688;10.908;2022-12-07T11:07:01;2.33;;;1.30;;
24891;SDS011;12954;50.688;10.908;2022-12-07T11:09:43;2.20;;;1.20;;
24891;SDS011;12954;50.688;10.908;2022-12-07T11:12:38;2.95;;;1.58;;
24891;SDS011;12954;50.688;10.908;2022-12-07T11:15:21;2.33;;;1.38;;
24891;SDS011;12954;50.688;10.908;2022-12-07T11:17:56;3.25;;;1.60;;
24891;SDS011;12954;50.688;10.908;2022-12-07T11:20:36;1.75;;;1.10;;
24891;SDS011;12954;50.688;10.908;2022-12-07T11:23:15;2.30;;;0.98;;
24891;SDS011;12954;50.688;10.908;2022-12-07T11:25:52;2.90;;;1.38;;
24891;SDS011;12954;50.688;10.908;2022-12-07T11:28:34;2.30;;;1.30;;
24891;SDS011;12954;50.688;10.908;2022-12-07T11:31:18;3.03;;;1.42;;
24891;SDS011;12954;50.688;10.908;2022-12-07T11:33:56;1.88;;;1.13;;
24891;SDS011;12954;50.688;10.908;2022-12-07T11:36:36;2.33;;;1.33;;
24891;SDS011;12954;50.688;10.908;2022-12-07T11:39:12;2.75;;;1.10;;
24891;SDS011;12954;50.688;10.908;2022-12-07T11:41:52;2.45;;;1.00;;
24891;SDS011;12954;50.688;10.908;2022-12-07T11:44:27;4.18;;;0.95;;
24891;SDS011;12954;50.688;10.908;2022-12-07T11:47:02;2.55;;;1.08;;
24891;SDS011;12954;50.688;10.908;2022-12-07T11:49:40;2.25;;;1.30;;
24891;SDS011;12954;50.688;10.908;2022-12-07T11:52:14;2.60;;;1.10;;
24891;SDS011;12954;50.688;10.908;2022-12-07T11:54:51;6.97;;;1.50;;
24891;SDS011;12954;50.688;10.908;2022-12-07T11:57:24;3.47;;;1.00;;
24891;SDS011;12954;50.688;10.908;2022-12-07T12:00:00;2.47;;;1.20;;
24891;SDS011;12954;50.688;10.908;2022-12-07T12:02:34;4.30;;;2.42;;
24891;SDS011;12954;50.688;10.908;2022-12-07T12:05:12;3.15;;;1.55;;
24891;SDS011;12954;50.688;10.908;2022-12-07T12:07:44;2.58;;;0.90;;
24891;SDS011;12954;50.688;10.908;2022-12-07T12:10:40;1.45;;;0.73;;
24891;SDS011;12954;50.688;10.908;2022-12-07T12:16:58;4.55;;;1.15;;
24891;SDS011;12954;50.688;10.908;2022-12-07T12:19:38;3.70;;;1.58;;
24891;SDS011;12954;50.688;10.908;2022-12-07T12:22:12;2.83;;;1.10;;
24891;SDS011;12954;50.688;10.908;2022-12-07T12:24:45;2.72;;;0.93;;
24891;SDS011;12954;50.688;10.908;2022-12-07T12:27:21;3.30;;;1.10;;
24891;SDS011;12954;50.688;10.908;2022-12-07T12:32:22;2.92;;;1.75;;
24891;SDS011;12954;50.688;10.908;2022-12-07T12:35:26;4.15;;;1.63;;
24891;SDS011;12954;50.688;10.908;2022-12-07T12:40:55;2.80;;;1.10;;
24891;SDS011;12954;50.688;10.908;2022-12-07T12:55:18;2.05;;;1.20;;
24891;SDS011;12954;50.688;10.908;2022-12-07T13:07:10;2.17;;;1.20;;
24891;SDS011;12954;50.688;10.908;2022-12-07T13:09:42;1.95;;;0.93;;
24891;SDS011;12954;50.688;10.908;2022-12-07T13:12:13;2.83;;;1.25;;
24891;SDS011;12954;50.688;10.908;2022-12-07T13:17:58;4.30;;;1.40;;
24891;SDS011;12954;50.688;10.908;2022-12-07T13:20:45;1.20;;;0.80;;
24891;SDS011;12954;50.688;10.908;2022-12-07T13:23:22;2.20;;;0.82;;
24891;SDS011;12954;50.688;10.908;2022-12-07T13:26:00;3.00;;;0.90;;
24891;SDS011;12954;50.688;10.908;2022-12-07T13:28:43;4.82;;;2.45;;
24891;SDS011;12954;50.688;10.908;2022-12-07T13:31:14;1.70;;;1.05;;
24891;SDS011;12954;50.688;10.908;2022-12-07T13:33:50;1.42;;;0.80;;
24891;SDS011;12954;50.688;10.908;2022-12-07T13:36:20;2.00;;;0.70;;
24891;SDS011;12954;50.688;10.908;2022-12-07T13:38:52;2.25;;;1.10;;
24891;SDS011;12954;50.688;10.908;2022-12-07T13:41:23;2.15;;;0.80;;
24891;SDS011;12954;50.688;10.908;2022-12-07T13:43:53;1.83;;;1.02;;
24891;SDS011;12954;50.688;10.908;2022-12-07T13:49:20;2.22;;;0.80;;
24891;SDS011;12954;50.688;10.908;2022-12-07T13:51:50;2.03;;;1.08;;
24891;SDS011;12954;50.688;10.908;2022-12-07T13:54:19;2.42;;;1.23;;
24891;SDS011;12954;50.688;10.908;2022-12-07T13:56:49;4.75;;;3.40;;
24891;SDS011;12954;50.688;10.908;2022-12-07T13:59:20;11.93;;;8.35;;
24891;SDS011;12954;50.688;10.908;2022-12-07T14:01:51;4.53;;;1.90;;
24891;SDS011;12954;50.688;10.908;2022-12-07T14:07:20;3.15;;;1.55;;
24891;SDS011;12954;50.688;10.908;2022-12-07T14:09:55;2.78;;;1.00;;
24891;SDS011;12954;50.688;10.908;2022-12-07T14:14:54;3.33;;;1.20;;
24891;SDS011;12954;50.688;10.908;2022-12-07T14:17:26;6.07;;;3.13;;
24891;SDS011;12954;50.688;10.908;2022-12-07T14:19:56;7.70;;;4.22;;
24891;SDS011;12954;50.688;10.908;2022-12-07T14:22:31;1.98;;;1.20;;
24891;SDS011;12954;50.688;10.908;2022-12-07T14:25:13;1.38;;;1.00;;
24891;SDS011;12954;50.688;10.908;2022-12-07T14:27:55;1.23;;;0.90;;
24891;SDS011;12954;50.688;10.908;2022-12-07T14:30:26;2.97;;;1.65;;
24891;SDS011;12954;50.688;10.908;2022-12-07T14:32:57;2.50;;;1.90;;
24891;SDS011;12954;50.688;10.908;2022-12-07T14:35:29;1.70;;;1.10;;
24891;SDS011;12954;50.688;10.908;2022-12-07T14:37:59;8.07;;;4.28;;
24891;SDS011;12954;50.688;10.908;2022-12-07T14:40:28;12.10;;;6.32;;
24891;SDS011;12954;50.688;10.908;2022-12-07T14:42:59;17.65;;;7.07;;
24891;SDS011;12954;50.688;10.908;2022-12-07T14:45:29;15.00;;;6.32;;
24891;SDS011;12954;50.688;10.908;2022-12-07T14:47:58;2.53;;;1.13;;
24891;SDS011;12954;50.688;10.908;2022-12-07T14:50:49;1.05;;;0.50;;
24891;SDS011;12954;50.688;10.908;2022-12-07T14:53:41;1.70;;;0.70;;
24891;SDS011;12954;50.688;10.908;2022-12-07T14:56:22;3.60;;;1.23;;
24891;SDS011;12954;50.688;10.908;2022-12-07T14:58:50;1.30;;;0.90;;
24891;SDS011;12954;50.688;10.908;2022-12-07T15:01:19;1.10;;;0.70;;
24891;SDS011;12954;50.688;10.908;2022-12-07T15:03:47;1.63;;;1.00;;
24891;SDS011;12954;50.688;10.908;2022-12-07T15:06:18;2.83;;;1.67;;
24891;SDS011;12954;50.688;10.908;2022-12-07T15:08:47;7.78;;;4.90;;
24891;SDS011;12954;50.688;10.908;2022-12-07T15:11:17;12.27;;;7.10;;
24891;SDS011;12954;50.688;10.908;2022-12-07T15:13:46;1.00;;;0.70;;
24891;SDS011;12954;50.688;10.908;2022-12-07T15:16:33;1.58;;;0.60;;
24891;SDS011;12954;50.688;10.908;2022-12-07T15:19:23;2.47;;;1.00;;
24891;SDS011;12954;50.688;10.908;2022-12-07T15:21:57;2.15;;;1.42;;
24891;SDS011;12954;50.688;10.908;2022-12-07T15:24:26;3.55;;;2.13;;
24891;SDS011;12954;50.688;10.908;2022-12-07T15:26:54;5.97;;;3.08;;
24891;SDS011;12954;50.688;10.908;2022-12-07T15:29:23;6.25;;;3.83;;
24891;SDS011;12954;50.688;10.908;2022-12-07T15:31:51;4.45;;;2.90;;
24891;SDS011;12954;50.688;10.908;2022-12-07T15:34:24;8.90;;;4.30;;
24891;SDS011;12954;50.688;10.908;2022-12-07T15:37:03;10.27;;;6.45;;
24891;SDS011;12954;50.688;10.908;2022-12-07T15:39:31;6.15;;;3.03;;
24891;SDS011;12954;50.688;10.908;2022-12-07T15:41:59;6.68;;;3.72;;
24891;SDS011;12954;50.688;10.908;2022-12-07T15:44:28;9.15;;;5.00;;
24891;SDS011;12954;50.688;10.908;2022-12-07T15:47:14;5.30;;;2.58;;
24891;SDS011;12954;50.688;10.908;2022-12-07T15:49:43;4.43;;;1.45;;
24891;SDS011;12954;50.688;10.908;2022-12-07T15:52:12;3.97;;;1.80;;
24891;SDS011;12954;50.688;10.908;2022-12-07T15:54:42;3.75;;;2.30;;